Terminal Aerodrome Forecast
Issued by NWS Jackson, KY

Home | Current Version | Previous Version | Text Only | Print | Product List | Glossary On
Versions: 1 2 3 4 5 6 7 8 9 10 11 12 13 14 15 16 17
000
FTUS43 KJKL 291100
TAFLOZ
TAF
KLOZ 291126Z 2912/3012 00000KT 2SM BR SCT002 SCT050 SCT100
      TEMPO 2912/2913 1/4SM FG VV001
     FM291300 VRB03KT P6SM SCT050 SCT100
     FM291600 26004KT P6SM VCSH SCT035
     FM300200 00000KT P6SM SKC
     FM300700 00000KT 2SM BR SCT002
     FM300900 00000KT 1/2SM FG VV002=

USA.gov is the U.S. government's official web portal to all federal, state and local government web resources and services.